sensor_id;sensor_type;location;lat;lon;timestamp;pressure;altitude;pressure_sealevel;temperature;humidity
55014;BME280;40916;51.632;5.552;2023-01-10T00:00:29;1007.8645289046851;;;5.22803175345776;0
55014;BME280;40916;51.632;5.552;2023-01-10T00:01:28;1007.8899888994614;;;5.22803175345776;0
55014;BME280;40916;51.632;5.552;2023-01-10T00:02:29;1007.8791367887543;;;5.199279626194681;0
55014;BME280;40916;51.632;5.552;2023-01-10T00:03:29;1007.8382092761061;;;5.206468490130749;0
55014;BME280;40916;51.632;5.552;2023-01-10T00:04:29;1007.9263603304746;;;5.22803175345776;0
55014;BME280;40916;51.632;5.552;2023-01-10T00:05:29;1008.0009519135041;;;5.213656799193231;0
55014;BME280;40916;51.632;5.552;2023-01-10T00:06:29;1007.9664227288795;;;5.199279626194681;0
55014;BME280;40916;51.632;5.552;2023-01-10T00:07:29;1007.9564294490607;;;5.192090207194838;0
55014;BME280;40916;51.632;5.552;2023-01-10T00:08:29;1007.9573447364597;;;5.18490023294094;0
55014;BME280;40916;51.632;5.552;2023-01-10T00:09:29;1008.0382662232936;;;5.1777097032426305;0
55014;BME280;40916;51.632;5.552;2023-01-10T00:10:30;1008.0655397953691;;;5.1633269767508665;0
55014;BME280;40916;51.632;5.552;2023-01-10T00:11:29;1008.0518984006371;;;5.156134779576252;0
55014;BME280;40916;51.632;5.552;2023-01-10T00:12:29;1008.0637234466124;;;5.1777097032426305;0
55014;BME280;40916;51.632;5.552;2023-01-10T00:13:30;1008.0791794693498;;;5.170518617909451;0
55014;BME280;40916;51.632;5.552;2023-01-10T00:14:30;1008.1173640737012;;;5.18490023294094;0
55014;BME280;40916;51.632;5.552;2023-01-10T00:15:30;1008.1337209683645;;;5.199279626194681;0
55014;BME280;40916;51.632;5.552;2023-01-10T00:16:30;1008.1773640279056;;;5.199279626194681;0
55014;BME280;40916;51.632;5.552;2023-01-10T00:17:30;1008.1427962260511;;;5.213656799193231;0
55014;BME280;40916;51.632;5.552;2023-01-10T00:18:30;1008.2445798291013;;;5.242404490508051;0
55014;BME280;40916;51.632;5.552;2023-01-10T00:19:30;1008.2881420175632;;;5.271143319038114;0
55014;BME280;40916;51.632;5.552;2023-01-10T00:20:30;1008.2244284029181;;;5.2855094135505105;0
55014;BME280;40916;51.632;5.552;2023-01-10T00:21:30;1008.2707767811346;;;5.292691631531262;0
55014;BME280;40916;51.632;5.552;2023-01-10T00:22:30;1008.2560790338077;;;5.321414979363755;0
55014;BME280;40916;51.632;5.552;2023-01-10T00:23:30;1008.2287075557279;;;5.335773341470492;0
55014;BME280;40916;51.632;5.552;2023-01-10T00:24:31;1008.2495796348165;;;5.342951695232074;0
55014;BME280;40916;51.632;5.552;2023-01-10T00:25:31;1008.2432596088028;;;5.335773341470492;0
55014;BME280;40916;51.632;5.552;2023-01-10T00:26:31;1008.3269339501805;;;5.335773341470492;0
55014;BME280;40916;51.632;5.552;2023-01-10T00:27:31;1008.3388004586282;;;5.328594436243929;0
55014;BME280;40916;51.632;5.552;2023-01-10T00:28:31;1008.3698016332348;;;5.314234970641252;0
55014;BME280;40916;51.632;5.552;2023-01-10T00:29:31;1008.3044558914831;;;5.2855094135505105;0
55014;BME280;40916;51.632;5.552;2023-01-10T00:30:31;1008.3454969371782;;;5.249590028052413;0
55014;BME280;40916;51.632;5.552;2023-01-10T00:31:31;1008.3655337500117;;;5.235218399039756;0
55014;BME280;40916;51.632;5.552;2023-01-10T00:32:31;1008.3882785180364;;;5.22803175345776;0
55014;BME280;40916;51.632;5.552;2023-01-10T00:33:31;1008.3192040872816;;;5.199279626194681;0
55014;BME280;40916;51.632;5.552;2023-01-10T00:34:31;1008.421948213432;;;5.192090207194838;0
55014;BME280;40916;51.632;5.552;2023-01-10T00:35:32;1008.4964971164143;;;5.1777097032426305;0
55014;BME280;40916;51.632;5.552;2023-01-10T00:36:32;1008.4328402121112;;;5.1633269767508665;0
55014;BME280;40916;51.632;5.552;2023-01-10T00:37:32;1008.4764241194831;;;5.134554850048676;0
55014;BME280;40916;51.632;5.552;2023-01-10T00:38:32;1008.5372667118787;;;5.11296990950596;0
55014;BME280;40916;51.632;5.552;2023-01-10T00:39:32;1008.5262386153007;;;5.084182184948599;0
55014;BME280;40916;51.632;5.552;2023-01-10T00:40:32;1008.5934301566792;;;5.0697849747239445;0
55014;BME280;40916;51.632;5.552;2023-01-10T00:41:32;1008.5932547001756;;;5.04098385071396;0
55014;BME280;40916;51.632;5.552;2023-01-10T00:42:32;1008.6058784485328;;;5.026579933856919;0
55014;BME280;40916;51.632;5.552;2023-01-10T00:43:32;1008.6492742069654;;;4.997765382748902;0
55014;BME280;40916;51.632;5.552;2023-01-10T00:44:32;1008.5919555290952;;;4.99056034439198;0
55014;BME280;40916;51.632;5.552;2023-01-10T00:45:32;1008.7410017182476;;;4.99056034439198;0
55014;BME280;40916;51.632;5.552;2023-01-10T00:46:33;1008.662710087232;;;4.976148585633428;0
55014;BME280;40916;51.632;5.552;2023-01-10T00:47:33;1008.5994759000105;;;4.925689748244412;0
55014;BME280;40916;51.632;5.552;2023-01-10T00:48:33;1008.7347843232866;;;4.918479095027024;0
55014;BME280;40916;51.632;5.552;2023-01-10T00:49:33;1008.671817043801;;;4.8968437593030885;0
55014;BME280;40916;51.632;5.552;2023-01-10T00:50:33;1008.675868468325;;;4.8607736012242455;0
55014;BME280;40916;51.632;5.552;2023-01-10T00:51:33;1008.765920018049;;;4.867988760266201;0
55014;BME280;40916;51.632;5.552;2023-01-10T00:52:33;1008.7255157075726;;;4.839124738710904;0
55014;BME280;40916;51.632;5.552;2023-01-10T00:53:33;1008.7372140318905;;;4.831907322095603;0
55014;BME280;40916;51.632;5.552;2023-01-10T00:54:33;1008.7654904504028;;;4.839124738710904;0
55014;BME280;40916;51.632;5.552;2023-01-10T00:55:34;1008.6212487384812;;;4.795811761924753;0
55014;BME280;40916;51.632;5.552;2023-01-10T00:56:33;1008.6095604408174;;;4.803032004887871;0
55014;BME280;40916;51.632;5.552;2023-01-10T00:57:34;1008.5994464319568;;;4.795811761924753;0
55014;BME280;40916;51.632;5.552;2023-01-10T00:58:34;1008.7113061952059;;;4.803032004887871;0
55014;BME280;40916;51.632;5.552;2023-01-10T00:59:34;1008.7105184515766;;;4.810251682191517;0
55014;BME280;40916;51.632;5.552;2023-01-10T01:00:34;1008.7222075314414;;;4.803032004887871;0
55014;BME280;40916;51.632;5.552;2023-01-10T01:01:34;1008.6918545219371;;;4.781369578239456;0
55014;BME280;40916;51.632;5.552;2023-01-10T01:02:34;1008.6934107876775;;;4.766925129573465;0
55014;BME280;40916;51.632;5.552;2023-01-10T01:03:34;1008.7354577924672;;;4.781369578239456;0
55014;BME280;40916;51.632;5.552;2023-01-10T01:04:34;1008.7754274718311;;;4.781369578239456;0
55014;BME280;40916;51.632;5.552;2023-01-10T01:05:38;1008.7131250716635;;;4.7524784143631855;0
55014;BME280;40916;51.632;5.552;2023-01-10T01:06:34;1008.67833044488;;;4.738029431043575;0
55014;BME280;40916;51.632;5.552;2023-01-10T01:07:34;1008.8387504819038;;;4.766925129573465;0
55014;BME280;40916;51.632;5.552;2023-01-10T01:08:35;1008.7219295624309;;;4.738029431043575;0
55014;BME280;40916;51.632;5.552;2023-01-10T01:09:35;1008.7561567472533;;;4.723578178048157;0
55014;BME280;40916;51.632;5.552;2023-01-10T01:10:35;1008.8636268101048;;;4.738029431043575;0
55014;BME280;40916;51.632;5.552;2023-01-10T01:11:35;1008.9079886062369;;;4.7308040883533025;0
55014;BME280;40916;51.632;5.552;2023-01-10T01:12:35;1008.7991478793411;;;4.6946688567567705;0
55014;BME280;40916;51.632;5.552;2023-01-10T01:13:35;1008.974902871592;;;4.716351699932101;0
55014;BME280;40916;51.632;5.552;2023-01-10T01:14:35;1008.9531042994337;;;4.716351699932101;0
55014;BME280;40916;51.632;5.552;2023-01-10T01:15:35;1008.946593486355;;;4.709124653809013;0
55014;BME280;40916;51.632;5.552;2023-01-10T01:16:35;1008.9930683515879;;;4.716351699932101;0
55014;BME280;40916;51.632;5.552;2023-01-10T01:17:35;1008.984426806008;;;4.6946688567567705;0
55014;BME280;40916;51.632;5.552;2023-01-10T01:18:35;1009.0729964980992;;;4.716351699932101;0
55014;BME280;40916;51.632;5.552;2023-01-10T01:19:35;1009.0672350321491;;;4.70189703948267;0
55014;BME280;40916;51.632;5.552;2023-01-10T01:20:37;1009.0534523657983;;;4.6946688567567705;0
55014;BME280;40916;51.632;5.552;2023-01-10T01:21:36;1009.0324022073297;;;4.68744010543492;0
55014;BME280;40916;51.632;5.552;2023-01-10T01:22:36;1009.1202267929418;;;4.716351699932101;0
55014;BME280;40916;51.632;5.552;2023-01-10T01:23:36;1009.0723637511709;;;4.68744010543492;0
55014;BME280;40916;51.632;5.552;2023-01-10T01:24:36;1009.1472446232716;;;4.66575043792831;0
55014;BME280;40916;51.632;5.552;2023-01-10T01:25:36;1009.147981338772;;;4.658519410256865;0
55014;BME280;40916;51.632;5.552;2023-01-10T01:26:36;1009.2017351016838;;;4.66575043792831;0
55014;BME280;40916;51.632;5.552;2023-01-10T01:27:36;1009.242430019311;;;4.658519410256865;0
55014;BME280;40916;51.632;5.552;2023-01-10T01:28:36;1009.2700496173468;;;4.636822908978893;0
55014;BME280;40916;51.632;5.552;2023-01-10T01:29:36;1009.302741860473;;;4.636822908978893;0
55014;BME280;40916;51.632;5.552;2023-01-10T01:30:36;1009.3325265736412;;;4.629589601808256;0
55014;BME280;40916;51.632;5.552;2023-01-10T01:31:36;1009.3245366944536;;;4.636822908978893;0
55014;BME280;40916;51.632;5.552;2023-01-10T01:32:36;1009.391368482883;;;4.658519410256865;0
55014;BME280;40916;51.632;5.552;2023-01-10T01:33:37;1009.320904221833;;;4.636822908978893;0
55014;BME280;40916;51.632;5.552;2023-01-10T01:34:37;1009.2780403579175;;;4.629589601808256;0
55014;BME280;40916;51.632;5.552;2023-01-10T01:35:40;1009.3782973877487;;;4.64405564597914;0
55014;BME280;40916;51.632;5.552;2023-01-10T01:36:37;1009.374664855731;;;4.64405564597914;0
55014;BME280;40916;51.632;5.552;2023-01-10T01:37:37;1009.4291528482014;;;4.64405564597914;0
55014;BME280;40916;51.632;5.552;2023-01-10T01:38:37;1009.3238094196855;;;4.64405564597914;0
55014;BME280;40916;51.632;5.552;2023-01-10T01:39:37;1009.3259808406693;;;4.658519410256865;0
55014;BME280;40916;51.632;5.552;2023-01-10T01:40:37;1009.2300590877538;;;4.672980896217311;0
55014;BME280;40916;51.632;5.552;2023-01-10T01:41:37;1009.2671237103003;;;4.66575043792831;0
55014;BME280;40916;51.632;5.552;2023-01-10T01:42:37;1009.2671237103003;;;4.66575043792831;0
55014;BME280;40916;51.632;5.552;2023-01-10T01:43:57;1009.2896543890454;;;4.658519410256865;0
55014;BME280;40916;51.632;5.552;2023-01-10T01:44:37;1009.278021815398;;;4.66575043792831;0
55014;BME280;40916;51.632;5.552;2023-01-10T01:45:38;1009.2605932361149;;;4.658519410256865;0
55014;BME280;40916;51.632;5.552;2023-01-10T01:46:37;1009.1966709292348;;;4.64405564597914;0
55014;BME280;40916;51.632;5.552;2023-01-10T01:47:39;1009.2903866325311;;;4.651287813006121;0
55014;BME280;40916;51.632;5.552;2023-01-10T01:48:38;1009.3470431719758;;;4.66575043792831;0
55014;BME280;40916;51.632;5.552;2023-01-10T01:49:39;1009.3848339321521;;;4.651287813006121;0
55014;BME280;40916;51.632;5.552;2023-01-10T01:50:39;1009.3797375134214;;;4.66575043792831;0
55014;BME280;40916;51.632;5.552;2023-01-10T01:51:38;1009.4450659332568;;;4.70189703948267;0
55014;BME280;40916;51.632;5.552;2023-01-10T01:52:38;1009.458105629101;;;4.716351699932101;0
55014;BME280;40916;51.632;5.552;2023-01-10T01:53:39;1009.4958166851479;;;4.738029431043575;0
55014;BME280;40916;51.632;5.552;2023-01-10T01:54:38;1009.5000484398754;;;4.766925129573465;0
55014;BME280;40916;51.632;5.552;2023-01-10T01:55:38;1009.4149442554036;;;4.781369578239456;0
55014;BME280;40916;51.632;5.552;2023-01-10T01:56:39;1009.4271628305;;;4.803032004887871;0
55014;BME280;40916;51.632;5.552;2023-01-10T01:57:39;1009.3749743508926;;;4.781369578239456;0
55014;BME280;40916;51.632;5.552;2023-01-10T01:58:42;1009.5151469108894;;;4.795811761924753;0
55014;BME280;40916;51.632;5.552;2023-01-10T01:59:39;1009.4388382555536;;;4.795811761924753;0
55014;BME280;40916;51.632;5.552;2023-01-10T02:00:39;1009.5732868731897;;;4.795811761924753;0
55014;BME280;40916;51.632;5.552;2023-01-10T02:01:39;1009.5654517439375;;;4.766925129573465;0
55014;BME280;40916;51.632;5.552;2023-01-10T02:02:40;1009.5298781381762;;;4.7597020553841425;0
55014;BME280;40916;51.632;5.552;2023-01-10T02:03:39;1009.4740169756827;;;4.738029431043575;0
55014;BME280;40916;51.632;5.552;2023-01-10T02:04:40;1009.5757489889985;;;4.738029431043575;0
55014;BME280;40916;51.632;5.552;2023-01-10T02:05:39;1009.5547016190462;;;4.7308040883533025;0
55014;BME280;40916;51.632;5.552;2023-01-10T02:06:40;1009.6578066175334;;;4.7524784143631855;0
55014;BME280;40916;51.632;5.552;2023-01-10T02:07:40;1009.5669715119343;;;4.7524784143631855;0
55014;BME280;40916;51.632;5.552;2023-01-10T02:08:41;1009.6505398064112;;;4.7524784143631855;0
55014;BME280;40916;51.632;5.552;2023-01-10T02:09:41;1009.6082914511272;;;4.774147637126738;0
55014;BME280;40916;51.632;5.552;2023-01-10T02:10:41;1009.5893585488523;;;4.781369578239456;0
55014;BME280;40916;51.632;5.552;2023-01-10T02:11:40;1009.5776902415545;;;4.788590953107022;0
55014;BME280;40916;51.632;5.552;2023-01-10T02:12:40;1009.5377196462133;;;4.788590953107022;0
55014;BME280;40916;51.632;5.552;2023-01-10T02:13:41;1009.5862763358078;;;4.810251682191517;0
55014;BME280;40916;51.632;5.552;2023-01-10T02:14:41;1009.6065258334218;;;4.824689340600468;0
55014;BME280;40916;51.632;5.552;2023-01-10T02:15:40;1009.5722564505662;;;4.839124738710904;0
55014;BME280;40916;51.632;5.552;2023-01-10T02:16:41;1009.6332519448988;;;4.84634159064106;0
55014;BME280;40916;51.632;5.552;2023-01-10T02:17:41;1009.5924893011876;;;4.853557878080672;0
55014;BME280;40916;51.632;5.552;2023-01-10T02:18:41;1009.5864807849097;;;4.875203355400867;0
55014;BME280;40916;51.632;5.552;2023-01-10T02:19:43;1009.7048253524305;;;4.889630854725205;0
55014;BME280;40916;51.632;5.552;2023-01-10T02:20:44;1009.6515382306802;;;4.911267879260162;0
55014;BME280;40916;51.632;5.552;2023-01-10T02:21:49;1009.6390201057313;;;4.925689748244412;0
55014;BME280;40916;51.632;5.552;2023-01-10T02:22:47;1009.5832841541153;;;4.904056100750115;0
55014;BME280;40916;51.632;5.552;2023-01-10T02:24:47;1009.6737462076562;;;4.940109367805135;0
55014;BME280;40916;51.632;5.552;2023-01-10T02:25:48;1009.6692970603241;;;4.947318334535439;0
55014;BME280;40916;51.632;5.552;2023-01-10T02:26:45;1009.6212253965296;;;4.954526739490202;0
55014;BME280;40916;51.632;5.552;2023-01-10T02:27:45;1009.6575755627748;;;4.954526739490202;0
55014;BME280;40916;51.632;5.552;2023-01-10T02:28:48;1009.6385813728903;;;4.9617345828626895;0
55014;BME280;40916;51.632;5.552;2023-01-10T02:29:49;1009.6850167881463;;;4.968941864846066;0
55014;BME280;40916;51.632;5.552;2023-01-10T02:30:45;1009.7213681246778;;;4.968941864846066;0
55014;BME280;40916;51.632;5.552;2023-01-10T02:31:51;1009.7532626724721;;;4.976148585633428;0
55014;BME280;40916;51.632;5.552;2023-01-10T02:32:42;1009.6603918195459;;;4.9617345828626895;0
55014;BME280;40916;51.632;5.552;2023-01-10T02:33:43;1009.7815208142737;;;4.983354745417763;0
55014;BME280;40916;51.632;5.552;2023-01-10T02:34:46;1009.7633445600738;;;4.983354745417763;0
55014;BME280;40916;51.632;5.552;2023-01-10T02:35:48;1009.7253369359496;;;4.997765382748902;0
55014;BME280;40916;51.632;5.552;2023-01-10T02:36:43;1009.7127665877296;;;5.012173778381694;0
55014;BME280;40916;51.632;5.552;2023-01-10T02:37:44;1009.709131108968;;;5.012173778381694;0
55014;BME280;40916;51.632;5.552;2023-01-10T02:38:47;1009.774854507052;;;5.04098385071396;0
55014;BME280;40916;51.632;5.552;2023-01-10T02:39:45;1009.8022525935689;;;5.055385530490785;0
55014;BME280;40916;51.632;5.552;2023-01-10T02:40:45;1009.7269848017564;;;5.0769838589914436;0
55014;BME280;40916;51.632;5.552;2023-01-10T02:41:44;1009.7571393231441;;;5.09857716269849;0
55014;BME280;40916;51.632;5.552;2023-01-10T02:42:45;1009.7060217906259;;;5.0697849747239445;0
55014;BME280;40916;51.632;5.552;2023-01-10T02:43:44;1009.7334020989998;;;5.084182184948599;0
55014;BME280;40916;51.632;5.552;2023-01-10T02:44:44;1009.770823370493;;;5.105773814874311;0
55014;BME280;40916;51.632;5.552;2023-01-10T02:45:45;1009.7445065604289;;;5.11296990950596;0
55014;BME280;40916;51.632;5.552;2023-01-10T02:46:44;1009.720777633775;;;5.09857716269849;0
55014;BME280;40916;51.632;5.552;2023-01-10T02:47:44;1009.7590516971093;;;5.11296990950596;0
55014;BME280;40916;51.632;5.552;2023-01-10T02:48:44;1009.7464099549742;;;5.127360426901948;0
55014;BME280;40916;51.632;5.552;2023-01-10T02:49:45;1009.7446683206465;;;5.141748716416;0
55014;BME280;40916;51.632;5.552;2023-01-10T02:50:48;1009.7656136531004;;;5.148942026194899;0
55014;BME280;40916;51.632;5.552;2023-01-10T02:51:44;1009.7775262713618;;;5.170518617909451;0
55014;BME280;40916;51.632;5.552;2023-01-10T02:52:45;1009.799442973655;;;5.199279626194681;0
55014;BME280;40916;51.632;5.552;2023-01-10T02:53:45;1009.7758371021733;;;5.213656799193231;0
55014;BME280;40916;51.632;5.552;2023-01-10T02:54:45;1009.714006618884;;;5.213656799193231;0
55014;BME280;40916;51.632;5.552;2023-01-10T02:55:51;1009.7585956772834;;;5.235218399039756;0
55014;BME280;40916;51.632;5.552;2023-01-10T02:56:52;1009.7513211580706;;;5.235218399039756;0
55014;BME280;40916;51.632;5.552;2023-01-10T02:57:46;1009.6831143216035;;;5.22803175345776;0
55014;BME280;40916;51.632;5.552;2023-01-10T02:58:51;1009.7567894066723;;;5.249590028052413;0
55014;BME280;40916;51.632;5.552;2023-01-10T02:59:49;1009.8068070607568;;;5.256775011862501;0
55014;BME280;40916;51.632;5.552;2023-01-10T03:00:46;1009.8304399943711;;;5.242404490508051;0
55014;BME280;40916;51.632;5.552;2023-01-10T03:01:47;1009.860438995203;;;5.235218399039756;0
55014;BME280;40916;51.632;5.552;2023-01-10T03:02:50;1009.7458446582446;;;5.220844553572228;0
55014;BME280;40916;51.632;5.552;2023-01-10T03:03:47;1009.7539384264049;;;5.18490023294094;0
55014;BME280;40916;51.632;5.552;2023-01-10T03:04:49;1009.8430866735266;;;5.199279626194681;0
55014;BME280;40916;51.632;5.552;2023-01-10T03:05:49;1009.8384696571147;;;5.1777097032426305;0
55014;BME280;40916;51.632;5.552;2023-01-10T03:06:47;1009.7775262713618;;;5.170518617909451;0
55014;BME280;40916;51.632;5.552;2023-01-10T03:07:49;1009.8556534780048;;;5.156134779576252;0
55014;BME280;40916;51.632;5.552;2023-01-10T03:08:48;1009.8892571547692;;;5.148942026194899;0
55014;BME280;40916;51.632;5.552;2023-01-10T03:09:49;1009.942775660225;;;5.127360426901948;0
55014;BME280;40916;51.632;5.552;2023-01-10T03:10:48;1009.9290947102377;;;5.12016544678476;0
55014;BME280;40916;51.632;5.552;2023-01-10T03:11:47;1010.0026830135147;;;5.11296990950596;0
55014;BME280;40916;51.632;5.552;2023-01-10T03:12:48;1010.0153076525364;;;5.09857716269849;0
55014;BME280;40916;51.632;5.552;2023-01-10T03:13:47;1009.8766544504141;;;5.04098385071396;0
55014;BME280;40916;51.632;5.552;2023-01-10T03:14:47;1010.049489057849;;;5.055385530490785;0
55014;BME280;40916;51.632;5.552;2023-01-10T03:15:47;1010.0629124448257;;;5.033782172016558;0
55014;BME280;40916;51.632;5.552;2023-01-10T03:16:49;1010.0516945054823;;;5.0049698606812605;0
55014;BME280;40916;51.632;5.552;2023-01-10T03:17:49;1010.0860615441351;;;4.99056034439198;0
55014;BME280;40916;51.632;5.552;2023-01-10T03:18:49;1010.146679626824;;;4.968941864846066;0
55014;BME280;40916;51.632;5.552;2023-01-10T03:19:49;1010.1167825287743;;;4.976148585633428;0
55014;BME280;40916;51.632;5.552;2023-01-10T03:20:48;1010.1402227060204;;;4.9617345828626895;0
55014;BME280;40916;51.632;5.552;2023-01-10T03:21:48;1010.2040274674816;;;4.976148585633428;0
55014;BME280;40916;51.632;5.552;2023-01-10T03:22:48;1010.2064644877772;;;4.954526739490202;0
55014;BME280;40916;51.632;5.552;2023-01-10T03:23:48;1010.1515261717956;;;4.925689748244412;0
55014;BME280;40916;51.632;5.552;2023-01-10T03:24:48;1010.2981468961601;;;4.947318334535439;0
55014;BME280;40916;51.632;5.552;2023-01-10T03:25:48;1010.3090518373325;;;4.947318334535439;0
55014;BME280;40916;51.632;5.552;2023-01-10T03:26:50;1010.3680147502372;;;4.940109367805135;0
55014;BME280;40916;51.632;5.552;2023-01-10T03:27:49;1010.4043640055502;;;4.940109367805135;0
55014;BME280;40916;51.632;5.552;2023-01-10T03:28:50;1010.3243956592235;;;4.940109367805135;0
55014;BME280;40916;51.632;5.552;2023-01-10T03:29:49;1010.3550753221928;;;4.925689748244412;0
55014;BME280;40916;51.632;5.552;2023-01-10T03:30:49;1010.4152687844133;;;4.940109367805135;0
55014;BME280;40916;51.632;5.552;2023-01-10T03:31:49;1010.2759076365743;;;4.918479095027024;0
55014;BME280;40916;51.632;5.552;2023-01-10T03:32:49;1010.3041880003811;;;4.925689748244412;0
55014;BME280;40916;51.632;5.552;2023-01-10T03:33:49;1010.4209317423825;;;4.954526739490202;0
55014;BME280;40916;51.632;5.552;2023-01-10T03:34:49;1010.4209317423825;;;4.954526739490202;0
55014;BME280;40916;51.632;5.552;2023-01-10T03:35:51;1010.4665730885392;;;4.968941864846066;0
55014;BME280;40916;51.632;5.552;2023-01-10T03:36:52;1010.3813388353523;;;4.983354745417763;0
55014;BME280;40916;51.632;5.552;2023-01-10T03:37:51;1010.3995151884907;;;4.983354745417763;0
55014;BME280;40916;51.632;5.552;2023-01-10T03:38:50;1010.4495939622495;;;4.99056034439198;0
55014;BME280;40916;51.632;5.552;2023-01-10T03:39:51;1010.4023346820694;;;4.99056034439198;0
55014;BME280;40916;51.632;5.552;2023-01-10T03:40:51;1010.4152383081434;;;5.0049698606812605;0
55014;BME280;40916;51.632;5.552;2023-01-10T03:41:51;1010.3590584639693;;;5.019377136042756;0
55014;BME280;40916;51.632;5.552;2023-01-10T03:42:52;1010.3788838754932;;;5.0049698606812605;0
55014;BME280;40916;51.632;5.552;2023-01-10T03:43:51;1010.3816966612209;;;5.012173778381694;0
55014;BME280;40916;51.632;5.552;2023-01-10T03:44:52;1010.4373862903442;;;5.033782172016558;0
55014;BME280;40916;51.632;5.552;2023-01-10T03:45:52;1010.4785183177383;;;5.055385530490785;0
55014;BME280;40916;51.632;5.552;2023-01-10T03:46:51;1010.5585070031292;;;5.055385530490785;0
55014;BME280;40916;51.632;5.552;2023-01-10T03:47:51;1010.5428208968692;;;5.033782172016558;0
55014;BME280;40916;51.632;5.552;2023-01-10T03:48:51;1010.5791776804426;;;5.033782172016558;0
55014;BME280;40916;51.632;5.552;2023-01-10T03:49:52;1010.4863030294903;;;5.019377136042756;0
55014;BME280;40916;51.632;5.552;2023-01-10T03:50:51;1010.6737053722195;;;5.033782172016558;0
55014;BME280;40916;51.632;5.552;2023-01-10T03:51:51;1010.6135477376215;;;5.019377136042756;0
55014;BME280;40916;51.632;5.552;2023-01-10T03:52:51;1010.5651091916305;;;4.997765382748902;0
55014;BME280;40916;51.632;5.552;2023-01-10T03:53:51;1010.676172562539;;;5.012173778381694;0
55014;BME280;40916;51.632;5.552;2023-01-10T03:54:51;1010.7230547612446;;;4.983354745417763;0
55014;BME280;40916;51.632;5.552;2023-01-10T03:55:52;1010.7392102730304;;;4.968941864846066;0
55014;BME280;40916;51.632;5.552;2023-01-10T03:56:52;1010.6353994021184;;;4.954526739490202;0
55014;BME280;40916;51.632;5.552;2023-01-10T03:57:52;1010.7553560664372;;;4.954526739490202;0
55014;BME280;40916;51.632;5.552;2023-01-10T03:58:52;1010.7149220344836;;;4.925689748244412;0
55014;BME280;40916;51.632;5.552;2023-01-10T03:59:53;1010.7092326966992;;;4.911267879260162;0
55014;BME280;40916;51.632;5.552;2023-01-10T04:00:52;1010.7879118398245;;;4.889630854725205;0
55014;BME280;40916;51.632;5.552;2023-01-10T04:01:53;1010.7523460823392;;;4.882417386822482;0
55014;BME280;40916;51.632;5.552;2023-01-10T04:02:52;1010.7910146698108;;;4.8607736012242455;0
55014;BME280;40916;51.632;5.552;2023-01-10T04:03:52;1010.8520264657353;;;4.867988760266201;0
55014;BME280;40916;51.632;5.552;2023-01-10T04:04:53;1010.8367151498787;;;4.875203355400867;0
55014;BME280;40916;51.632;5.552;2023-01-10T04:05:53;1010.9080808563505;;;4.853557878080672;0
55014;BME280;40916;51.632;5.552;2023-01-10T04:06:53;1010.9182154397785;;;4.8607736012242455;0
55014;BME280;40916;51.632;5.552;2023-01-10T04:07:53;1010.881101390896;;;4.867988760266201;0
55014;BME280;40916;51.632;5.552;2023-01-10T04:08:53;1010.8489187162039;;;4.8968437593030885;0
55014;BME280;40916;51.632;5.552;2023-01-10T04:09:53;1010.8836987099745;;;4.911267879260162;0
55014;BME280;40916;51.632;5.552;2023-01-10T04:10:53;1011.0142402570389;;;4.947318334535439;0
55014;BME280;40916;51.632;5.552;2023-01-10T04:11:53;1010.9023499751858;;;4.940109367805135;0
55014;BME280;40916;51.632;5.552;2023-01-10T04:12:53;1010.9459692882451;;;4.940109367805135;0
55014;BME280;40916;51.632;5.552;2023-01-10T04:13:56;1010.9334737715128;;;4.954526739490202;0
55014;BME280;40916;51.632;5.552;2023-01-10T04:14:54;1010.8207870276674;;;4.954526739490202;0
55014;BME280;40916;51.632;5.552;2023-01-10T04:15:54;1010.9290400098956;;;4.9617345828626895;0
55014;BME280;40916;51.632;5.552;2023-01-10T04:16:54;1010.8991577259761;;;4.968941864846066;0
55014;BME280;40916;51.632;5.552;2023-01-10T04:17:54;1010.9666188681314;;;4.983354745417763;0